Time;durP1;ratioP1;P1;durP2;ratioP2;P2;SDS_P1;SDS_P2;PMS_P1;PMS_P2;Temp;Humidity;BMP_temperature;BMP_pressure;BME280_temperature;BME280_humidity;BME280_pressure;Samples;Min_cycle;Max_cycle;Signal;HPM_P1;HPM_P2
2022/03/05 00:00:16;;;;;;;10.40;4.40;;;;;;;19.06;46.79;100515.00;5047773;28;20447;-60
2022/03/05 00:02:41;;;;;;;8.17;4.30;;;;;;;19.06;46.52;100515.81;5048405;28;20278;-60
2022/03/05 00:05:07;;;;;;;8.60;4.80;;;;;;;19.04;46.87;100517.41;5048211;28;20231;-60
2022/03/05 00:07:33;;;;;;;8.30;4.80;;;;;;;19.00;46.89;100514.47;5048552;28;20190;-60
2022/03/05 00:09:58;;;;;;;9.27;4.37;;;;;;;18.98;47.04;100516.06;5028572;28;20219;-60
2022/03/05 00:12:24;;;;;;;7.53;4.27;;;;;;;18.97;47.23;100515.22;5027445;28;20172;-59
2022/03/05 00:14:49;;;;;;;7.47;3.43;;;;;;;18.95;47.57;100511.94;5027881;28;20176;-59
2022/03/05 00:17:14;;;;;;;11.90;4.40;;;;;;;19.01;47.29;100515.31;5038532;28;20525;-60
2022/03/05 00:19:40;;;;;;;17.30;4.23;;;;;;;18.92;47.73;100512.69;5048401;28;20202;-60
2022/03/05 00:22:05;;;;;;;7.60;4.43;;;;;;;18.91;47.88;100518.81;5047730;28;20643;-59
2022/03/05 00:24:31;;;;;;;9.97;4.70;;;;;;;18.92;47.52;100521.25;5029599;28;20239;-59
2022/03/05 00:26:56;;;;;;;10.20;4.40;;;;;;;18.89;47.67;100509.75;5046790;28;20167;-59
2022/03/05 00:29:22;;;;;;;8.83;4.17;;;;;;;18.86;48.07;100517.06;5047412;28;20587;-60
2022/03/05 00:31:47;;;;;;;9.83;4.80;;;;;;;18.90;47.83;100520.81;5048414;28;20605;-60
2022/03/05 00:34:13;;;;;;;10.50;4.47;;;;;;;18.86;47.98;100517.06;5047970;28;20289;-59
2022/03/05 00:36:38;;;;;;;7.90;4.40;;;;;;;18.83;48.33;100517.00;5047392;28;20168;-60
2022/03/05 00:39:05;;;;;;;8.70;3.90;;;;;;;18.84;48.18;100522.34;5046152;28;20180;-59
2022/03/05 00:41:30;;;;;;;7.07;3.70;;;;;;;18.85;48.21;100523.16;5047194;28;20212;-59
2022/03/05 00:43:55;;;;;;;15.03;4.60;;;;;;;18.88;47.93;100514.66;5043857;28;20430;-59
2022/03/05 00:46:21;;;;;;;7.67;3.80;;;;;;;18.87;47.96;100517.91;5046743;28;20187;-59
2022/03/05 00:48:46;;;;;;;6.80;4.00;;;;;;;18.86;48.36;100516.25;5048188;28;20164;-59
2022/03/05 00:51:12;;;;;;;8.43;3.83;;;;;;;18.84;48.31;100522.34;5047491;28;20202;-59
2022/03/05 00:53:37;;;;;;;9.23;4.00;;;;;;;18.79;48.48;100522.66;5047781;28;20210;-59
2022/03/05 00:56:03;;;;;;;10.90;4.43;;;;;;;18.81;48.58;100525.94;5046062;28;20179;-59
2022/03/05 00:58:28;;;;;;;7.97;4.27;;;;;;;18.81;48.56;100523.09;5047315;28;20175;-59
2022/03/05 01:00:54;;;;;;;8.30;3.97;;;;;;;18.81;48.58;100525.13;5047192;28;20179;-59
2022/03/05 01:03:19;;;;;;;7.63;4.30;;;;;;;18.80;48.51;100524.28;5047556;28;20519;-59
2022/03/05 01:05:45;;;;;;;7.13;3.90;;;;;;;18.82;48.57;100524.72;5045838;28;20242;-59
2022/03/05 01:08:12;;;;;;;8.90;3.90;;;;;;;18.82;48.64;100527.59;5042725;28;20188;-59
2022/03/05 01:10:37;;;;;;;7.80;3.90;;;;;;;18.81;48.64;100528.81;5028087;28;20730;-59
2022/03/05 01:13:03;;;;;;;11.03;4.37;;;;;;;18.79;48.68;100530.38;5027592;28;20423;-59
2022/03/05 01:15:28;;;;;;;6.80;3.43;;;;;;;18.77;48.58;100525.03;5029700;28;20204;-59
2022/03/05 01:17:54;;;;;;;8.60;4.27;;;;;;;18.79;48.57;100525.50;5044311;28;20191;-59
2022/03/05 01:20:22;;;;;;;6.73;3.93;;;;;;;18.78;48.72;100526.72;5046717;28;20549;-59
2022/03/05 01:22:48;;;;;;;7.30;4.10;;;;;;;18.79;48.51;100518.94;5047689;28;20203;-59
2022/03/05 01:25:13;;;;;;;12.73;4.77;;;;;;;18.78;48.59;100523.84;5045382;28;20492;-59
2022/03/05 01:27:38;;;;;;;5.97;3.40;;;;;;;18.78;48.75;100523.84;5047961;28;20187;-60
2022/03/05 01:30:04;;;;;;;10.20;3.70;;;;;;;18.77;48.69;100522.16;5047079;28;20583;-60
2022/03/05 01:32:30;;;;;;;6.27;3.53;;;;;;;18.78;48.97;100523.00;5047784;28;20175;-59
2022/03/05 01:34:55;;;;;;;5.83;3.60;;;;;;;18.79;48.68;100518.94;5048085;28;20175;-61
2022/03/05 01:37:21;;;;;;;7.37;3.83;;;;;;;18.79;48.87;100516.94;5044181;28;20177;-59
2022/03/05 01:39:46;;;;;;;6.27;3.70;;;;;;;18.75;48.68;100515.19;5046430;28;20172;-60
2022/03/05 01:42:12;;;;;;;6.30;3.70;;;;;;;18.77;48.99;100515.66;5047084;28;20199;-60
2022/03/05 01:44:37;;;;;;;8.50;4.03;;;;;;;18.75;48.86;100513.16;5048073;28;20180;-59
2022/03/05 01:47:03;;;;;;;8.33;4.10;;;;;;;18.76;48.73;100523.38;5047337;28;20253;-60
2022/03/05 01:49:29;;;;;;;6.53;3.37;;;;;;;18.74;49.55;100522.94;5029573;28;20175;-59
2022/03/05 01:51:55;;;;;;;4.97;3.23;;;;;;;18.74;49.17;100524.97;5047730;28;20418;-59
2022/03/05 01:54:21;;;;;;;4.80;3.30;;;;;;;18.73;49.10;100529.88;5047734;28;20947;-59
2022/03/05 01:56:46;;;;;;;6.73;3.57;;;;;;;18.72;48.86;100525.34;5049078;28;20418;-59
2022/03/05 01:59:12;;;;;;;6.90;4.07;;;;;;;18.73;49.03;100523.31;5049920;28;20311;-59
2022/03/05 02:01:37;;;;;;;7.57;3.80;;;;;;;18.74;49.13;100522.09;5033503;28;20226;-60
2022/03/05 02:04:03;;;;;;;6.97;4.00;;;;;;;18.73;48.90;100526.19;5033060;28;20198;-59
2022/03/05 02:06:28;;;;;;;6.30;3.40;;;;;;;18.73;49.39;100526.19;5050885;28;20231;-59
2022/03/05 02:08:57;;;;;;;5.50;3.70;;;;;;;18.72;48.84;100533.91;5049510;28;20234;-59
2022/03/05 02:11:23;;;;;;;4.80;2.90;;;;;;;18.70;49.28;100516.31;5051424;28;20176;-60
2022/03/05 02:13:48;;;;;;;7.67;3.80;;;;;;;18.70;48.96;100519.19;5050806;28;20421;-59
2022/03/05 02:16:13;;;;;;;6.90;3.77;;;;;;;18.69;49.31;100520.38;5051160;28;20180;-59
2022/03/05 02:18:44;;;;;;;6.37;3.80;;;;;;;18.70;49.35;100519.19;5051252;28;20186;-60
2022/03/05 02:21:09;;;;;;;5.57;3.40;;;;;;;18.68;49.41;100512.19;5050952;28;20203;-60
2022/03/05 02:23:35;;;;;;;5.83;3.70;;;;;;;18.67;49.42;100505.63;5050669;28;20422;-60
2022/03/05 02:26:02;;;;;;;6.50;4.00;;;;;;;18.70;49.10;100519.19;5051102;28;20187;-60
2022/03/05 02:28:29;;;;;;;7.30;3.73;;;;;;;18.68;49.04;100510.16;5050533;28;20216;-60
2022/03/05 02:30:55;;;;;;;4.93;2.80;;;;;;;18.69;49.21;100513.84;5050206;28;20465;-60
2022/03/05 02:33:20;;;;;;;7.20;3.93;;;;;;;18.67;49.09;100508.47;5049265;28;20831;-60
2022/03/05 02:35:45;;;;;;;8.23;4.40;;;;;;;18.66;49.48;100503.97;5049517;28;20183;-61
2022/03/05 02:38:18;;;;;;;4.80;3.17;;;;;;;18.67;49.09;100505.63;5050283;28;20184;-60
2022/03/05 02:40:44;;;;;;;6.67;3.60;;;;;;;18.67;49.08;100502.75;5046883;28;20304;-60
2022/03/05 02:43:10;;;;;;;12.80;3.73;;;;;;;18.67;49.21;100504.81;5050765;28;20422;-61
2022/03/05 02:45:35;;;;;;;7.17;3.80;;;;;;;18.67;49.37;100502.75;5050600;28;20650;-60
2022/03/05 02:48:02;;;;;;;6.10;3.20;;;;;;;18.65;49.46;100515.78;5050261;28;20183;-60
2022/03/05 02:50:27;;;;;;;5.60;3.30;;;;;;;18.63;49.56;100509.63;5049694;28;20184;-60
2022/03/05 02:52:53;;;;;;;8.67;3.87;;;;;;;18.65;49.44;100508.03;5050268;28;20426;-60
2022/03/05 02:55:19;;;;;;;5.03;3.17;;;;;;;18.66;49.32;100512.56;5050480;28;20178;-60
2022/03/05 02:57:44;;;;;;;6.80;3.30;;;;;;;18.64;49.49;100505.56;5050008;28;20295;-60
2022/03/05 03:00:10;;;;;;;6.53;3.80;;;;;;;18.64;49.33;100514.97;5049735;28;20552;-60
2022/03/05 03:02:35;;;;;;;5.10;3.23;;;;;;;18.69;49.33;100506.09;5048961;28;20752;-60
2022/03/05 03:05:01;;;;;;;6.80;4.10;;;;;;;18.68;49.64;100518.75;5048375;28;20235;-60
2022/03/05 03:07:26;;;;;;;4.93;3.60;;;;;;;18.65;49.40;100518.63;5028536;28;20172;-60
2022/03/05 03:09:52;;;;;;;5.87;3.40;;;;;;;18.65;49.24;100519.47;5032384;28;20187;-60
2022/03/05 03:12:17;;;;;;;7.03;4.00;;;;;;;18.64;49.29;100520.69;5031744;28;20176;-60
2022/03/05 03:14:43;;;;;;;5.87;3.73;;;;;;;18.64;49.38;100522.72;5030044;28;20180;-60
2022/03/05 03:17:08;;;;;;;6.03;3.13;;;;;;;18.66;49.45;100521.13;5040008;28;20232;-61
2022/03/05 03:19:34;;;;;;;4.53;3.10;;;;;;;18.66;49.34;100520.31;5044037;28;20183;-60
2022/03/05 03:21:59;;;;;;;5.07;3.00;;;;;;;18.63;49.60;100521.91;5029918;28;20200;-60
2022/03/05 03:24:25;;;;;;;5.20;3.30;;;;;;;18.64;49.70;100512.13;5029944;28;20191;-60
2022/03/05 03:26:50;;;;;;;4.53;2.80;;;;;;;18.64;49.44;100517.84;5029944;28;20176;-60
2022/03/05 03:29:16;;;;;;;9.23;3.63;;;;;;;18.66;49.44;100521.13;5031219;28;20184;-60
2022/03/05 03:31:41;;;;;;;6.30;3.40;;;;;;;18.65;49.43;100518.63;5034077;28;20175;-60
2022/03/05 03:34:06;;;;;;;4.00;2.70;;;;;;;18.65;49.36;100522.34;5029649;28;20180;-61
2022/03/05 03:36:32;;;;;;;5.13;2.77;;;;;;;18.69;49.15;100520.38;5047777;28;20191;-61
2022/03/05 03:38:57;;;;;;;5.83;3.40;;;;;;;18.61;49.48;100518.56;5048966;28;21061;-60
2022/03/05 03:41:23;;;;;;;4.20;3.10;;;;;;;18.65;49.46;100524.38;5050154;28;20242;-60
2022/03/05 03:43:48;;;;;;;6.67;3.37;;;;;;;18.62;49.55;100519.41;5049574;28;20251;-60
2022/03/05 03:46:14;;;;;;;4.73;3.07;;;;;;;18.63;49.45;100516.19;5049052;28;20179;-60
2022/03/05 03:48:39;;;;;;;6.00;3.27;;;;;;;18.65;49.37;100519.47;5049304;28;20175;-60
2022/03/05 03:51:04;;;;;;;6.83;3.47;;;;;;;18.61;49.60;100520.63;5048773;28;20176;-60
2022/03/05 03:53:30;;;;;;;6.40;4.03;;;;;;;18.60;49.65;100521.81;5049275;28;20172;-60
2022/03/05 03:55:55;;;;;;;5.20;3.10;;;;;;;18.62;49.52;100528.00;5049175;28;20210;-60
2022/03/05 03:58:21;;;;;;;6.93;3.67;;;;;;;18.60;49.73;100525.50;5048987;28;20196;-60
2022/03/05 04:00:46;;;;;;;5.37;3.27;;;;;;;18.62;49.72;100534.53;5048679;28;20175;-60
2022/03/05 04:03:12;;;;;;;7.10;3.33;;;;;;;18.64;49.35;100531.28;5048919;28;20191;-60
2022/03/05 04:05:37;;;;;;;6.90;3.60;;;;;;;18.61;49.41;100534.91;5029160;28;20228;-60
2022/03/05 04:10:47;;;;;;;4.70;2.80;;;;;;;18.60;49.55;100525.50;5028924;28;20661;-60
2022/03/05 04:13:12;;;;;;;5.13;3.20;;;;;;;18.61;49.66;100527.16;5028387;28;20435;-60
2022/03/05 04:15:38;;;;;;;6.43;3.30;;;;;;;18.61;49.59;100530.00;5027349;28;20176;-60
2022/03/05 04:18:04;;;;;;;6.03;3.40;;;;;;;18.59;49.84;100538.16;5046109;28;20183;-60
2022/03/05 04:20:30;;;;;;;5.60;3.60;;;;;;;18.60;49.93;100539.81;5047295;28;20641;-60
2022/03/05 04:22:55;;;;;;;5.30;3.50;;;;;;;18.59;49.42;100543.88;5047500;28;20458;-60
2022/03/05 04:25:21;;;;;;;4.67;3.00;;;;;;;18.60;49.48;100551.25;5047003;28;20526;-60
2022/03/05 04:27:46;;;;;;;5.33;3.30;;;;;;;18.60;49.62;100542.66;5048255;28;20798;-60
2022/03/05 04:30:12;;;;;;;6.57;3.60;;;;;;;18.58;49.78;100550.78;5048033;28;20182;-62
2022/03/05 04:32:38;;;;;;;5.93;3.07;;;;;;;18.58;49.78;100556.53;5048840;28;20254;-60
2022/03/05 04:35:04;;;;;;;5.50;3.57;;;;;;;18.59;49.51;100548.75;5048077;28;20831;-60
2022/03/05 04:37:30;;;;;;;5.40;3.50;;;;;;;18.56;49.80;100556.03;5048845;28;20423;-61
2022/03/05 04:39:55;;;;;;;5.07;2.60;;;;;;;18.58;49.45;100556.53;5048144;28;20187;-60
2022/03/05 04:42:20;;;;;;;4.53;2.87;;;;;;;18.57;49.42;100566.28;5048542;28;20199;-61
2022/03/05 04:44:46;;;;;;;5.10;3.20;;;;;;;18.59;49.53;100561.03;5044977;28;20183;-60
2022/03/05 04:47:11;;;;;;;4.53;3.33;;;;;;;18.55;49.65;100557.25;5047952;28;20184;-61
2022/03/05 04:49:37;;;;;;;5.03;3.47;;;;;;;18.59;49.68;100563.88;5047345;28;20176;-60
2022/03/05 04:52:03;;;;;;;5.50;3.57;;;;;;;18.58;49.78;100559.38;5048758;28;20629;-61
2022/03/05 04:54:30;;;;;;;4.60;3.00;;;;;;;18.56;49.53;100570.34;5048013;28;20180;-60
2022/03/05 04:56:56;;;;;;;4.80;2.97;;;;;;;18.56;50.01;100560.94;5048717;28;20175;-60
2022/03/05 04:59:22;;;;;;;4.80;3.40;;;;;;;18.59;49.63;100555.31;5030317;28;20568;-60
2022/03/05 05:01:47;;;;;;;5.00;2.97;;;;;;;18.58;50.09;100559.38;5048735;28;21031;-59
2022/03/05 05:04:13;;;;;;;4.33;2.63;;;;;;;18.57;49.94;100560.56;5048249;28;20207;-61
2022/03/05 05:06:38;;;;;;;4.40;2.83;;;;;;;18.58;49.43;100556.53;5047164;28;20235;-60
2022/03/05 05:09:04;;;;;;;3.90;2.73;;;;;;;18.57;49.44;100563.41;5036421;28;20184;-59
2022/03/05 05:11:30;;;;;;;5.40;3.27;;;;;;;18.57;49.55;100569.13;5031307;28;20180;-59
2022/03/05 05:13:55;;;;;;;5.83;2.67;;;;;;;18.59;49.44;100568.75;5028500;28;20192;-59
2022/03/05 05:16:21;;;;;;;3.80;2.70;;;;;;;18.59;49.55;100568.75;5031672;28;20191;-60
2022/03/05 05:21:30;;;;;;;6.30;3.00;;;;;;;18.59;49.68;100569.59;5044543;28;20206;-60
2022/03/05 05:23:56;;;;;;;5.00;3.27;;;;;;;18.57;49.60;100572.00;5028300;28;20419;-60
2022/03/05 05:26:21;;;;;;;4.90;3.10;;;;;;;18.61;49.52;100569.22;5028360;28;20211;-60
2022/03/05 05:28:47;;;;;;;5.00;3.10;;;;;;;18.57;49.66;100576.91;5030692;28;20534;-60
2022/03/05 05:31:13;;;;;;;4.37;2.83;;;;;;;18.60;49.53;100576.97;5028080;28;20195;-60
2022/03/05 05:33:39;;;;;;;4.53;2.67;;;;;;;18.59;49.35;100578.19;5032494;28;20764;-60
2022/03/05 05:36:05;;;;;;;5.00;2.80;;;;;;;18.58;49.46;100582.25;5032829;28;20223;-60
2022/03/05 05:38:31;;;;;;;3.90;2.50;;;;;;;18.59;49.40;100583.91;5050504;28;20426;-61
2022/03/05 05:40:56;;;;;;;5.80;2.73;;;;;;;18.56;49.76;100590.34;5050677;28;20226;-60
2022/03/05 05:43:22;;;;;;;4.40;3.03;;;;;;;18.58;49.70;100582.25;5052001;28;20426;-60
2022/03/05 05:45:47;;;;;;;3.90;2.80;;;;;;;18.57;49.64;100574.84;5051281;28;20754;-60
2022/03/05 05:48:13;;;;;;;4.17;2.90;;;;;;;18.56;49.66;100586.69;5051678;28;20190;-60
2022/03/05 05:50:38;;;;;;;4.63;2.77;;;;;;;18.56;49.54;100583.81;5051581;28;20179;-60
2022/03/05 05:53:04;;;;;;;5.33;3.13;;;;;;;18.64;49.44;100597.91;5050019;28;20207;-60
2022/03/05 05:55:30;;;;;;;3.77;2.87;;;;;;;18.60;49.43;100597.00;5051030;28;20241;-61
2022/03/05 05:57:55;;;;;;;5.10;3.23;;;;;;;18.61;49.50;100604.34;5051458;28;20426;-60
2022/03/05 06:00:21;;;;;;;4.33;2.90;;;;;;;18.56;49.80;100596.06;5050668;28;20168;-60
2022/03/05 06:02:47;;;;;;;4.87;3.23;;;;;;;18.57;49.64;100602.63;5051717;28;20211;-61
2022/03/05 06:05:12;;;;;;;4.90;3.10;;;;;;;18.59;49.72;100614.50;5034402;28;20236;-60
2022/03/05 06:07:37;;;;;;;6.47;3.40;;;;;;;18.56;49.86;100600.97;5030667;28;20561;-61
2022/03/05 06:10:03;;;;;;;4.83;2.93;;;;;;;18.59;49.62;100611.66;5050653;28;20186;-60
2022/03/05 06:12:29;;;;;;;3.53;2.50;;;;;;;18.58;49.43;100613.72;5051478;28;20745;-60
2022/03/05 06:14:54;;;;;;;5.70;2.73;;;;;;;18.59;49.49;100618.22;5050968;28;20414;-61
2022/03/05 06:17:20;;;;;;;4.40;2.63;;;;;;;18.59;49.64;100614.50;5051009;28;20188;-61
2022/03/05 06:19:46;;;;;;;4.47;3.10;;;;;;;18.61;49.51;100618.66;5050377;28;20700;-61
2022/03/05 06:22:12;;;;;;;4.17;2.90;;;;;;;18.59;49.63;100612.50;5051346;28;20199;-60
2022/03/05 06:24:37;;;;;;;7.67;3.37;;;;;;;18.59;49.59;100612.50;5051213;28;20430;-61
2022/03/05 06:27:02;;;;;;;5.10;2.97;;;;;;;18.60;49.90;100614.16;5050914;28;20171;-61
2022/03/05 06:29:28;;;;;;;4.20;2.80;;;;;;;18.57;49.54;100614.88;5050270;28;20179;-60
2022/03/05 06:31:54;;;;;;;4.73;2.90;;;;;;;18.58;49.56;100622.28;5050628;28;20164;-60
2022/03/05 06:34:19;;;;;;;3.70;2.63;;;;;;;18.59;49.48;100621.06;5046765;28;21039;-61
2022/03/05 06:36:44;;;;;;;3.90;2.83;;;;;;;18.61;49.54;100615.78;5050627;28;20188;-60
2022/03/05 06:39:10;;;;;;;4.03;2.80;;;;;;;18.59;49.38;100621.06;5050488;28;20180;-60
2022/03/05 06:41:35;;;;;;;3.90;2.70;;;;;;;18.60;49.54;100622.72;5050763;28;20196;-61
2022/03/05 06:44:01;;;;;;;4.37;3.20;;;;;;;18.60;49.31;100625.59;5048035;28;20183;-61
2022/03/05 06:46:26;;;;;;;5.20;2.73;;;;;;;18.60;49.33;100619.03;5050419;28;20198;-61
2022/03/05 06:48:52;;;;;;;5.23;2.83;;;;;;;18.65;49.13;100627.31;5050309;28;20184;-60
2022/03/05 06:51:17;;;;;;;5.90;3.87;;;;;;;18.61;49.39;100627.22;5050460;28;20226;-61
2022/03/05 06:53:42;;;;;;;4.40;2.70;;;;;;;18.60;49.57;100630.47;5050102;28;20176;-61
2022/03/05 06:56:08;;;;;;;4.43;2.97;;;;;;;18.59;49.43;100626.78;5050711;28;20164;-60
2022/03/05 06:58:33;;;;;;;3.20;2.50;;;;;;;18.62;49.46;100639.50;5050545;28;20172;-60
2022/03/05 07:00:59;;;;;;;5.30;3.10;;;;;;;18.61;49.43;100627.22;5049880;28;20178;-60
2022/03/05 07:03:24;;;;;;;4.47;2.70;;;;;;;18.62;49.85;100640.31;5050099;28;20206;-61
2022/03/05 07:05:50;;;;;;;5.30;3.00;;;;;;;18.65;49.26;100638.75;5049912;28;20215;-60
2022/03/05 07:08:15;;;;;;;5.73;3.20;;;;;;;18.64;49.43;100649.38;5049730;28;20168;-61
2022/03/05 07:10:40;;;;;;;4.30;2.70;;;;;;;18.60;49.41;100648.47;5045365;28;20176;-60
2022/03/05 07:13:06;;;;;;;4.90;3.10;;;;;;;18.61;49.79;100650.09;5045502;28;20191;-60
2022/03/05 07:15:31;;;;;;;3.50;2.70;;;;;;;18.59;49.68;100649.66;5031721;28;20685;-61
2022/03/05 07:17:57;;;;;;;5.10;3.00;;;;;;;18.62;49.14;100646.03;5049670;28;20175;-60
2022/03/05 07:20:22;;;;;;;5.70;3.30;;;;;;;18.65;49.30;100653.06;5049625;28;20183;-60
2022/03/05 07:22:48;;;;;;;4.40;3.10;;;;;;;18.62;49.45;100650.94;5049607;28;20211;-60
2022/03/05 07:25:14;;;;;;;4.30;2.93;;;;;;;18.63;49.39;100653.44;5035019;28;20183;-60
2022/03/05 07:27:40;;;;;;;5.60;2.90;;;;;;;18.63;49.36;100652.59;5029332;28;20172;-60
2022/03/05 07:30:09;;;;;;;4.13;2.83;;;;;;;18.62;49.41;100657.47;5049195;28;20468;-60
2022/03/05 07:32:35;;;;;;;4.33;2.90;;;;;;;18.61;49.42;100655.84;5049138;28;20163;-60
2022/03/05 07:35:01;;;;;;;5.07;2.63;;;;;;;18.64;49.61;100662.84;5048574;28;20424;-60
2022/03/05 07:37:26;;;;;;;4.93;3.03;;;;;;;18.66;49.36;100661.25;5048989;28;20410;-60
2022/03/05 07:39:52;;;;;;;4.87;2.90;;;;;;;18.62;49.42;100662.38;5049351;28;20422;-60
2022/03/05 07:42:17;;;;;;;4.67;3.00;;;;;;;18.68;49.39;100667.44;5048955;28;20261;-60
2022/03/05 07:44:43;;;;;;;4.53;2.70;;;;;;;18.67;49.31;100664.97;5048941;28;20183;-60
2022/03/05 07:47:08;;;;;;;4.43;3.00;;;;;;;18.62;49.57;100666.06;5048975;28;20270;-60
2022/03/05 07:49:34;;;;;;;3.50;2.47;;;;;;;18.62;49.49;100673.84;5048840;28;20183;-61
2022/03/05 07:51:59;;;;;;;3.50;2.23;;;;;;;18.66;49.55;100669.84;5049222;28;20176;-60
2022/03/05 07:54:26;;;;;;;5.17;2.97;;;;;;;18.63;49.77;100678.34;5048741;28;20984;-61
2022/03/05 07:56:55;;;;;;;4.53;2.50;;;;;;;18.65;49.25;100676.75;5048685;28;20179;-60
2022/03/05 07:59:21;;;;;;;9.83;2.27;;;;;;;18.63;49.88;100682.03;5048690;28;20438;-60
2022/03/05 08:01:46;;;;;;;5.37;3.20;;;;;;;18.63;49.22;100679.19;5048615;28;20461;-60
2022/03/05 08:04:12;;;;;;;3.67;2.40;;;;;;;18.64;49.38;100688.56;5031014;28;20241;-60
2022/03/05 08:06:37;;;;;;;3.60;2.60;;;;;;;18.65;49.41;100693.09;5048351;28;20239;-60
2022/03/05 08:09:03;;;;;;;3.53;2.37;;;;;;;18.64;49.38;100686.56;5036148;28;20176;-60
2022/03/05 08:11:28;;;;;;;3.20;2.27;;;;;;;18.68;49.34;100695.22;5028994;28;20157;-60
2022/03/05 08:13:53;;;;;;;4.13;3.03;;;;;;;18.64;49.58;100685.72;5028802;28;20654;-60
2022/03/05 08:16:19;;;;;;;4.37;2.50;;;;;;;18.67;49.35;100682.13;5031553;28;20184;-61
2022/03/05 08:18:44;;;;;;;3.87;2.43;;;;;;;18.64;49.28;100686.56;5049067;28;20172;-61
2022/03/05 08:21:10;;;;;;;3.73;2.60;;;;;;;18.68;49.31;100689.50;5048243;28;20179;-60
2022/03/05 08:23:35;;;;;;;3.80;2.63;;;;;;;18.69;49.21;100680.53;5048767;28;20633;-61
2022/03/05 08:26:02;;;;;;;4.10;2.90;;;;;;;18.68;49.31;100678.91;5048822;28;20225;-62
2022/03/05 08:28:27;;;;;;;5.17;3.10;;;;;;;18.72;48.93;100684.69;5030777;28;20170;-60
2022/03/05 08:30:53;;;;;;;4.40;2.53;;;;;;;18.68;49.10;100678.06;5048041;28;20418;-60
2022/03/05 08:33:21;;;;;;;4.73;3.30;;;;;;;18.68;49.06;100675.19;5048418;28;20167;-60
2022/03/05 08:35:46;;;;;;;4.00;2.73;;;;;;;18.65;49.23;100671.06;5046747;28;20229;-60
2022/03/05 08:38:12;;;;;;;3.30;2.60;;;;;;;18.70;49.03;100676.47;5045875;28;20434;-60
2022/03/05 08:40:38;;;;;;;5.10;3.20;;;;;;;18.67;49.09;100680.06;5048016;28;20214;-60
2022/03/05 08:43:03;;;;;;;3.57;2.50;;;;;;;18.67;49.28;100680.06;5047266;28;20203;-60
2022/03/05 08:45:29;;;;;;;3.53;2.30;;;;;;;18.64;49.25;100677.13;5046292;28;20164;-60
2022/03/05 08:47:55;;;;;;;4.50;2.27;;;;;;;18.64;49.26;100672.25;5048106;28;20175;-60
2022/03/05 08:50:20;;;;;;;3.97;2.63;;;;;;;18.66;49.44;100664.13;5029686;28;20176;-60
2022/03/05 08:52:45;;;;;;;3.90;2.73;;;;;;;18.65;49.24;100668.19;5047815;28;20172;-60
2022/03/05 08:55:12;;;;;;;3.77;2.53;;;;;;;18.69;49.22;100666.25;5048631;28;20191;-60
2022/03/05 08:57:39;;;;;;;4.10;2.60;;;;;;;18.71;49.10;100666.69;5048396;28;20262;-60
2022/03/05 09:00:06;;;;;;;10.17;6.47;;;;;;;18.19;41.97;100666.22;5047729;28;20422;-60
2022/03/05 09:02:32;;;;;;;10.00;7.40;;;;;;;17.50;43.41;100671.69;5043363;28;21340;-60
2022/03/05 09:04:57;;;;;;;12.23;7.73;;;;;;;17.90;40.76;100674.44;5040059;28;20539;-61
2022/03/05 09:07:23;;;;;;;10.63;7.33;;;;;;;18.34;42.35;100659.69;5027625;28;20322;-61
2022/03/05 09:09:48;;;;;;;13.80;8.43;;;;;;;18.63;43.11;100656.31;5033354;28;20199;-61
2022/03/05 09:12:14;;;;;;;14.33;7.27;;;;;;;19.04;42.49;100654.75;5038913;28;20176;-61
2022/03/05 09:14:39;;;;;;;12.17;7.30;;;;;;;19.07;43.34;100657.69;5049051;28;20183;-61
2022/03/05 09:17:05;;;;;;;9.60;6.40;;;;;;;19.12;42.76;100648.00;5050384;28;20184;-61
2022/03/05 09:19:30;;;;;;;13.47;7.53;;;;;;;18.98;42.88;100654.25;5048525;28;20221;-61
2022/03/05 09:21:56;;;;;;;13.93;8.27;;;;;;;19.08;42.20;100644.22;5049210;28;20245;-61
2022/03/05 09:24:21;;;;;;;11.80;6.90;;;;;;;19.11;41.59;100647.16;5049373;28;20287;-61
2022/03/05 09:26:47;;;;;;;14.73;7.30;;;;;;;19.06;41.84;100644.59;5051300;28;20658;-61
2022/03/05 09:29:12;;;;;;;12.13;6.97;;;;;;;18.93;42.38;100640.25;5050238;28;20191;-62
2022/03/05 09:31:39;;;;;;;16.20;7.40;;;;;;;18.84;43.47;100650.22;5050392;28;20183;-61
2022/03/05 09:34:05;;;;;;;9.33;5.97;;;;;;;18.91;42.58;100648.34;5050784;28;20558;-60
2022/03/05 09:36:31;;;;;;;10.53;6.17;;;;;;;18.78;42.90;100646.84;5050738;28;20433;-61
2022/03/05 09:38:56;;;;;;;8.80;5.67;;;;;;;18.71;43.27;100643.00;5050958;28;20184;-60
2022/03/05 09:41:22;;;;;;;10.20;6.47;;;;;;;18.70;42.96;100653.59;5043742;28;20490;-61
2022/03/05 09:43:47;;;;;;;12.83;6.13;;;;;;;18.69;42.86;100646.22;5031467;28;20188;-61
2022/03/05 09:46:13;;;;;;;10.67;5.77;;;;;;;18.67;43.56;100644.94;5033450;28;20175;-60
2022/03/05 09:48:40;;;;;;;8.20;5.37;;;;;;;18.67;43.40;100650.66;5049740;28;20646;-60
2022/03/05 09:51:05;;;;;;;11.33;5.67;;;;;;;18.80;44.34;100647.28;5049890;28;20653;-61
2022/03/05 09:53:31;;;;;;;9.43;5.43;;;;;;;18.87;44.09;100644.56;5050616;28;20430;-61
2022/03/05 09:55:57;;;;;;;8.50;5.27;;;;;;;18.98;43.65;100645.66;5050657;28;20183;-61
2022/03/05 09:58:22;;;;;;;15.03;5.50;;;;;;;18.90;43.71;100634.41;5046752;28;20173;-61
2022/03/05 10:00:48;;;;;;;9.20;4.93;;;;;;;18.87;44.23;100633.13;5030383;28;20283;-61
2022/03/05 10:03:14;;;;;;;8.40;5.10;;;;;;;18.88;43.83;100634.81;5029378;28;20222;-61
2022/03/05 10:05:39;;;;;;;8.97;5.77;;;;;;;18.90;44.64;100635.25;5037760;28;20168;-61
2022/03/05 10:08:15;;;;;;;7.60;4.40;;;;;;;19.08;44.45;100625.03;5046585;28;20473;-60
2022/03/05 10:10:54;;;;;;;9.17;4.87;;;;;;;18.97;44.03;100629.69;5037349;28;20190;-59
2022/03/05 10:13:32;;;;;;;11.07;4.67;;;;;;;18.79;44.81;100627.63;5050405;28;20461;-59
2022/03/05 10:15:59;;;;;;;8.63;4.80;;;;;;;18.75;44.29;100633.28;5050919;28;20460;-59
2022/03/05 10:18:32;;;;;;;7.80;4.43;;;;;;;18.75;44.14;100627.56;5049441;28;20418;-61
2022/03/05 10:20:59;;;;;;;8.40;4.03;;;;;;;19.00;44.62;100617.50;5049660;28;20418;-62
2022/03/05 10:23:24;;;;;;;7.50;4.63;;;;;;;19.02;44.21;100629.38;5049483;28;20500;-59
2022/03/05 10:25:54;;;;;;;10.03;4.90;;;;;;;18.98;45.15;100622.78;5049651;28;20426;-62
2022/03/05 10:28:23;;;;;;;6.53;3.93;;;;;;;19.02;44.80;100620.78;5049282;28;20176;-60
2022/03/05 10:30:53;;;;;;;7.03;4.97;;;;;;;19.24;45.61;100611.50;5049042;28;20422;-58
2022/03/05 10:33:30;;;;;;;10.27;4.80;;;;;;;19.33;46.17;100614.94;5049853;28;20830;-61
2022/03/05 10:35:56;;;;;;;6.67;5.00;;;;;;;19.39;45.89;100615.44;5045318;28;20513;-58
2022/03/05 10:38:22;;;;;;;8.10;4.63;;;;;;;19.40;46.22;100609.34;5048760;28;20916;-60
2022/03/05 10:40:55;;;;;;;10.73;4.77;;;;;;;19.33;47.15;100617.81;5048681;28;20430;-61
2022/03/05 10:43:20;;;;;;;7.57;4.93;;;;;;;19.27;47.79;100621.34;5048973;28;20351;-61
2022/03/05 10:45:58;;;;;;;6.80;4.43;;;;;;;19.24;47.59;100614.34;5049562;28;20434;-60
2022/03/05 10:48:31;;;;;;;7.03;4.20;;;;;;;19.21;47.16;100617.13;5043975;28;20253;-60
2022/03/05 10:50:59;;;;;;;8.60;4.70;;;;;;;19.20;47.44;100615.44;5048367;28;20844;-61
2022/03/05 10:53:35;;;;;;;6.90;4.50;;;;;;;19.21;47.25;100615.06;5048698;28;20436;-61
2022/03/05 10:56:19;;;;;;;11.60;4.60;;;;;;;19.25;47.45;100600.84;5048863;28;20434;-60
2022/03/05 10:58:55;;;;;;;7.83;4.33;;;;;;;19.31;47.38;100605.91;5049581;28;20472;-60
2022/03/05 11:01:20;;;;;;;6.03;4.07;;;;;;;19.26;46.08;100599.66;5047623;28;20438;-60
2022/03/05 11:03:47;;;;;;;9.07;3.87;;;;;;;19.21;46.58;100595.03;5046927;28;20504;-60
2022/03/05 11:06:13;;;;;;;8.40;5.10;;;;;;;19.06;45.09;100593.09;5046662;28;20211;-60
2022/03/05 11:08:38;;;;;;;9.40;5.50;;;;;;;18.86;43.29;100582.84;5042242;28;20463;-61
2022/03/05 11:11:04;;;;;;;16.97;6.97;;;;;;;18.80;41.56;100583.53;5039551;28;20207;-61
2022/03/05 11:13:29;;;;;;;12.03;6.80;;;;;;;18.75;39.57;100578.94;5047330;28;20184;-60
2022/03/05 11:15:54;;;;;;;11.90;6.90;;;;;;;18.72;39.40;100571.09;5048073;28;20184;-60
2022/03/05 11:18:20;;;;;;;11.83;6.87;;;;;;;18.70;35.82;100572.69;5047716;28;20184;-60
2022/03/05 11:20:47;;;;;;;12.33;7.07;;;;;;;18.65;34.09;100564.41;5029502;28;20630;-60
2022/03/05 11:23:13;;;;;;;21.13;7.10;;;;;;;18.73;34.33;100572.78;5019266;28;20350;-64